Decoded Metar for KVDF (TAMPA/VANDENBURG in FL, USA) (IATA:VDF) | Meteo·Mobile Aviation Weather
aviador You're here:

KVDF Decoded Metar

TAMPA/VANDENBURG in FL, USA
Report Time2018-10-17 02:55:00
UTC Time2018-10-17 03:07:15
Flight Rules vfr VFR
Wind140° at 03 kt
W.Decomp.*RWY 18: 2.4 kt HW 1.8 kt LCW
RWY 23: 0.2 kt HW 3 kt LCW
W.Rank140° ranks 29
Current wind is below 140° avg. (5.0)
Visibility9999 m
Phenomena:N/A
Clouds:N/A
Expected CloudBase > 1,600 ft AGL from Temp-Dew spread
CeilingNone
Temp26°C (ISA +11)
Dew Point22°C (79% RH)
QNH1020 hPa
Density Alt1,411 ft
Elevation23 ft
Report Wrong Elevation
Raw Report
KVDF 170255Z AUTO 14003KT 10SM CLR 26/22 A3012 RMK AO2=

Extra information for KVDF:More info

Metar Taf Metar & Taf Last 4 Metars F.Rules Stats Wind Profile Meteogram Temp Stats Airport Information Weather charts Add Link Nearby VenuesMetar ALERT Operation Metar Decoded Social comments

AIRNAV info for KVDF